Latest Coastal Weather Observations for Albion Park

IDN60701

Issued at 2:51 pm EST Tuesday 7 July 2015 (issued every 10 minutes, with the page automatically refreshed every 10 minutes)

About coastal observations | Map of coastal stations | Coastal observations for NSW | Marine services | Other Formats
Station Details ID: 068241 Name: WOLLONGONG AIRPORT Lat: -34.56 Lon: 150.79 Height: 8.0 m
Data from the previous 72 hours. | See also: Recent months at Albion Park
Date/Time
EST
Temp

°C
Wind Pressure Rain
since 9am
mm
Weather Cloud Vis
km
Sea
Height
m
Swell
Dir
 
Speed
knots
Gust
knots
hPa Trend Height
m
Period
s
Dir
07/02:30pm 14.2 SW 8 11 1021.5 - 0.0 - Partly cloudy 10 - - - -
07/02:00pm 13.7 SW 8 11 1021.3 - 0.0 - Partly cloudy 10 - - - -
07/01:30pm 13.8 SW 8 15 1021.2 - 0.0 - Partly cloudy 10 - - - -
07/01:00pm 12.9 SW 9 13 1021.2 - 0.0 - Partly cloudy 10 - - - -
07/12:30pm 12.7 SW 8 15 1021.4 - 0.0 - Partly cloudy 10 - - - -
07/12:00pm 12.9 WSW 11 16 1021.2 - 0.0 - Partly cloudy 10 - - - -
07/11:30am 13.1 WSW 9 13 1021.2 - 0.0 - Partly cloudy 10 - - - -
07/11:00am 13.1 SW 11 15 1021.3 - 0.0 - Partly cloudy 10 - - - -
07/10:30am 12.1 WSW 6 11 1021.4 - 0.0 - Partly cloudy 10 - - - -
07/10:00am 11.9 W 7 11 1021.3 - 0.0 - Partly cloudy 10 - - - -
07/09:30am 12.2 SW 8 13 1020.9 - 0.0 - Partly cloudy 10 - - - -
07/09:00am 11.9 SW 15 22 1020.4 - 0.0 - Mostly cloudy 10 - - - -
07/08:55am 12.0 SW 15 22 1020.2 - 0.0 - Partly cloudy 10 - - - -
07/08:30am 10.6 WSW 7 10 1019.9 - 0.0 - Cloudy 10 - - - -
07/08:00am 10.0 W 10 13 1019.5 - 0.0 - Cloudy 10 - - - -
07/07:30am 9.3 WSW 10 13 1019.2 - 0.0 - - 10 - - - -
07/07:00am 9.2 WSW 11 13 1018.6 - 0.0 - Partly cloudy 10 - - - -
07/06:30am 8.8 WSW 6 11 1018.0 - 0.0 - Cloudy 10 - - - -
07/06:00am 9.7 W 14 18 1017.4 - 0.0 - Mostly clear 10 - - - -
07/05:30am 9.7 W 15 18 1017.2 - 0.0 - Partly cloudy 10 - - - -
07/05:00am 9.8 W 15 18 1017.0 - 0.0 - Partly cloudy 10 - - - -
07/04:30am 10.3 WSW 15 20 1016.6 - 0.0 - - 10 - - - -
07/04:00am 10.3 WSW 14 18 1016.4 - 0.0 - - 10 - - - -
07/03:30am 10.4 W 17 21 1016.3 - 0.0 - - 10 - - - -
07/03:00am 10.9 WSW 15 21 1016.1 - 0.0 - - 10 - - - -
07/02:30am 10.5 WSW 18 23 1015.7 - 0.0 - Partly cloudy 10 - - - -
07/02:00am 10.8 WSW 12 19 1015.8 - 0.0 - Cloudy 10 - - - -
07/01:30am 10.9 WSW 11 21 1015.7 - 0.0 - Partly cloudy 10 - - - -
07/01:00am 10.9 WSW 9 13 1015.8 - 0.0 - Cloudy 10 - - - -
07/12:30am 10.2 WSW 12 17 1015.9 - 0.0 - Partly cloudy 10 - - - -
07/12:00am 10.2 WSW 16 21 1016.1 - 0.0 - Partly cloudy 10 - - - -
 
Date/Time
EST
Temp

°C
Wind Pressure Rain
since 9am
mm
Weather Cloud Vis
km
Sea
Height
m
Swell
Dir
 
Speed
knots
Gust
knots
hPa Trend Height
m
Period
s
Dir
06/11:30pm 10.2 WSW 10 13 1016.2 - 0.0 - Partly cloudy 10 - - - -
06/11:00pm 10.4 WSW 16 22 1016.0 - 0.0 - - 10 - - - -
06/10:30pm 10.6 W 19 25 1015.9 - 0.0 - - 10 - - - -
06/10:00pm 10.6 W 20 27 1015.7 - 0.0 - - 10 - - - -
06/09:30pm 10.6 WSW 20 25 1015.6 - 0.0 - - 10 - - - -
06/09:00pm 10.5 WSW 14 22 1015.6 - 0.0 - - 10 - - - -
06/08:30pm 11.0 WSW 14 18 1015.5 - 0.0 - - 10 - - - -
06/08:00pm 11.1 W 13 19 1015.3 - 0.0 - - 10 - - - -
06/07:30pm 11.1 W 13 21 1015.4 - 0.0 - - 10 - - - -
06/07:00pm 10.8 W 9 13 1015.3 - 0.0 - - 10 - - - -
06/06:30pm 11.4 W 11 17 1014.9 - 0.0 - - 10 - - - -
06/06:00pm 11.6 W 9 16 1014.7 - 0.0 - - 10 - - - -
06/05:30pm 11.3 WSW 7 11 1014.5 - 0.0 - - 10 - - - -
06/05:00pm 11.9 WNW 7 11 1014.3 - 0.0 - - 10 - - - -
06/04:30pm 13.5 W 9 16 1014.1 - 0.0 - - 10 - - - -
06/04:00pm 14.7 WSW 9 13 1014.0 - 0.0 - - 10 - - - -
06/03:30pm 15.4 WSW 11 15 1013.6 - 0.0 - - 10 - - - -
06/03:00pm 16.0 WSW 10 12 1013.3 - 0.0 - - 10 - - - -
06/02:30pm 16.0 W 11 16 1013.1 - 0.0 - - 10 - - - -
06/02:00pm 16.0 W 11 16 1012.9 - 0.0 - - 10 - - - -
06/01:30pm 16.5 W 9 14 1012.9 - 0.0 - - 10 - - - -
06/01:00pm 16.4 WSW 11 18 1013.0 - 0.0 - - 10 - - - -
06/12:30pm 16.1 W 12 17 1013.1 - 0.0 - - 10 - - - -
06/12:00pm 15.5 W 13 17 1013.4 - 0.0 - - 10 - - - -
06/11:30am 14.8 W 14 18 1014.0 - 0.0 - - 10 - - - -
06/11:00am 14.3 W 15 21 1014.3 - 0.0 - - 10 - - - -
06/10:30am 13.6 W 15 19 1014.7 - 0.0 - - 10 - - - -
06/10:00am 12.6 WNW 18 24 1014.9 - 0.0 - - 10 - - - -
06/09:41am 12.0 W 20 30 1015.1 - 0.0 - - 10 - - - -
06/09:30am 11.8 W 19 25 1015.0 - 0.0 - - 10 - - - -
06/09:00am 11.2 W 21 27 1015.3 - 0.0 - - 10 - - - -
06/08:30am 10.9 WNW 18 23 1015.0 - 0.0 - Partly cloudy 10 - - - -
06/08:00am 10.1 W 15 20 1015.1 - 0.0 - Partly cloudy 10 - - - -
06/07:30am 9.6 W 16 22 1015.0 - 0.0 - Partly cloudy 10 - - - -
06/07:00am 9.4 W 17 21 1014.7 - 0.0 - - 10 - - - -
06/06:30am 9.5 W 16 19 1014.7 - 0.0 - - 10 - - - -
06/06:00am 9.8 W 16 21 1014.8 - 0.0 - - 10 - - - -
06/05:30am 10.2 W 16 21 1014.9 - 0.0 - - 10 - - - -
06/05:00am 10.3 WSW 16 21 1015.1 - 0.0 - - 10 - - - -
06/04:30am 10.6 W 17 20 1015.1 - 0.0 - - 10 - - - -
06/04:00am 10.5 W 16 21 1015.2 - 0.0 - - 10 - - - -
06/03:30am 10.4 W 14 17 1015.5 - 0.0 - - 10 - - - -
06/03:00am 10.3 W 13 15 1015.7 - 0.0 - - 10 - - - -
06/02:30am 9.7 WSW 12 14 1016.1 - 0.0 - - 10 - - - -
06/02:00am 7.7 W 7 8 1016.3 - 0.0 - - 10 - - - -
06/01:30am 8.0 W 7 10 1016.5 - 0.0 - - 10 - - - -
06/01:00am 9.6 WSW 13 15 1016.6 - 0.0 - - 10 - - - -
06/12:30am 7.1 WSW 6 16 1016.9 - 0.0 - - 10 - - - -
06/12:00am 3.4 SW 4 5 1017.4 - 0.0 - - 10 - - - -
 
Date/Time
EST
Temp

°C
Wind Pressure Rain
since 9am
mm
Weather Cloud Vis
km
Sea
Height
m
Swell
Dir
 
Speed
knots
Gust
knots
hPa Trend Height
m
Period
s
Dir
05/11:30pm 2.5 SW 4 5 1017.4 - 0.0 - - 10 - - - -
05/11:00pm 3.8 SW 3 4 1017.6 - 0.0 - - 10 - - - -
05/10:30pm 4.0 SW 1 5 1017.6 - 0.0 - - 10 - - - -
05/10:00pm 3.5 SW 4 5 1017.6 - 0.0 - - 10 - - - -
05/09:30pm 4.3 SW 2 5 1017.9 - 0.0 - - 10 - - - -
05/09:00pm 5.4 CALM 0 0 1018.0 - 0.0 - - 10 - - - -
05/08:30pm 5.6 SW 3 6 1018.1 - 0.0 - - 10 - - - -
05/08:00pm 5.7 SW 2 3 1018.0 - 0.0 - - 10 - - - -
05/07:30pm 7.1 CALM 0 3 1018.1 - 0.0 - - 10 - - - -
05/07:00pm 8.6 CALM 0 3 1018.1 - 0.0 - - 10 - - - -
05/06:30pm 9.6 W 7 8 1017.9 - 0.0 - - 10 - - - -
05/06:00pm 10.2 W 6 6 1017.7 - 0.0 - - 10 - - - -
05/05:30pm 11.1 W 5 6 1017.4 - 0.0 - - 10 - - - -
05/05:00pm 12.7 W 5 5 1017.5 - 0.0 - - 10 - - - -
05/04:30pm 15.4 ENE 2 4 1017.5 - 0.0 - - 10 - - - -
05/04:00pm 16.1 ENE 4 5 1017.5 - 0.0 - - 10 - - - -
05/03:30pm 16.5 NE 6 7 1017.5 - 0.0 - - 10 - - - -
05/03:00pm 17.3 NE 7 8 1017.6 - 0.0 - - 10 - - - -
05/02:30pm 17.5 NE 7 8 1017.7 - 0.0 - - 10 - - - -
05/02:00pm 17.6 NE 7 8 1017.7 - 0.0 - - 10 - - - -
05/01:30pm 17.7 ENE 8 10 1017.7 - 0.0 - - 10 - - - -
05/01:00pm 17.5 ENE 9 10 1018.0 - 0.0 - - 10 - - - -
05/12:30pm 17.3 NE 7 9 1018.7 - 0.0 - - 10 - - - -
05/12:00pm 16.9 NE 8 9 1019.2 - 0.0 - - 10 - - - -
05/11:30am 16.5 NE 6 8 1019.9 - 0.0 - - 10 - - - -
05/11:00am 16.2 ENE 5 6 1020.5 - 0.0 - - 10 - - - -
05/10:30am 15.9 ENE 2 4 1020.8 - 0.0 - - 10 - - - -
05/10:00am 14.9 CALM 0 0 1021.1 - 0.0 - - 10 - - - -
05/09:30am 11.9 WNW 1 3 1021.2 - 0.0 - - 10 - - - -
05/09:00am 9.2 CALM 0 0 1021.3 - 0.0 - - 10 - - - -
05/08:30am 6.1 CALM 0 0 1021.3 - - - - 10 - - - -
05/08:00am 3.7 CALM 0 0 1021.3 - - - - 10 - - - -
05/07:30am 1.7 CALM 0 0 1021.3 - - - - 10 - - - -
05/07:00am 1.7 CALM 0 0 1021.1 - - - - 10 - - - -
05/06:30am 1.2 CALM 0 0 1020.6 - - - - 10 - - - -
05/06:00am 1.8 CALM 0 0 1020.5 - - - - 10 - - - -
05/05:30am 1.8 W 1 3 1020.4 - - - - 10 - - - -
05/05:00am 2.4 CALM 0 0 1020.4 - - - - 10 - - - -
05/04:30am 2.9 W 1 4 1020.4 - - - - 10 - - - -
05/04:00am 2.5 CALM 0 1 1020.6 - - - - 10 - - - -
05/03:30am 2.6 CALM 0 0 1020.6 - - - - 10 - - - -
05/03:00am 3.0 CALM 0 0 1020.7 - - - - 10 - - - -
05/02:30am 4.2 W 5 7 1021.0 - - - - 10 - - - -
05/02:00am 3.3 WSW 5 6 1021.1 - - - - 10 - - - -
05/01:30am 4.1 WSW 2 5 1021.2 - - - - 10 - - - -
05/12:30am 6.7 W 4 5 1021.0 - 0.0 - - 10 - - - -
05/12:00am 7.3 WSW 6 9 1021.2 - 0.0 - - 10 - - - -
 
Date/Time
EST
Temp

°C
Wind Pressure Rain
since 9am
mm
Weather Cloud Vis
km
Sea
Height
m
Swell
Dir
 
Speed
knots
Gust
knots
hPa Trend Height
m
Period
s
Dir
04/11:30pm 8.1 WSW 8 11 1021.4 - 0.0 - - 10 - - - -
04/11:00pm 8.5 W 9 12 1021.5 - 0.0 - - 10 - - - -
04/10:30pm 8.1 WSW 8 10 1021.6 - 0.0 - - 10 - - - -
04/10:00pm 8.9 W 9 12 1021.6 - 0.0 - - 10 - - - -
04/09:30pm 9.2 WSW 11 15 1021.6 - 0.0 - - 10 - - - -
04/09:00pm 9.3 WNW 9 13 1021.8 - 0.0 - - 10 - - - -
04/08:30pm 10.0 W 13 17 1021.6 - 0.0 - - 10 - - - -
04/08:00pm 10.1 WSW 13 17 1021.5 - 0.0 - - 10 - - - -
04/07:30pm 10.3 WSW 14 17 1021.5 - 0.0 - - 10 - - - -
04/07:00pm 9.5 WSW 12 15 1021.5 - 0.0 - - 10 - - - -
04/06:30pm 8.4 WSW 10 13 1021.4 - 0.0 - - 10 - - - -
04/06:00pm 8.5 W 7 11 1021.2 - 0.0 - - 10 - - - -
04/05:30pm 9.0 WNW 1 4 1021.0 - 0.0 - - 10 - - - -
04/05:00pm 10.2 WNW 4 5 1020.8 - 0.0 - - 10 - - - -
04/04:30pm 13.2 SW 6 9 1020.7 - 0.0 - - 10 - - - -
04/04:00pm 14.4 SSW 7 8 1020.5 - 0.0 - - 10 - - - -
04/03:30pm 14.8 SW 8 9 1020.2 - 0.0 - - 10 - - - -
04/03:00pm 15.1 SW 9 12 1020.2 - 0.0 - - 10 - - - -

Other Formats:

Comma delimited format used in spreadsheet applications
http://www.bom.gov.au/fwo/IDN60701/IDN60701.95748.axf

JavaScript Object Notation format (JSON) in row-major order
http://www.bom.gov.au/fwo/IDN60701/IDN60701.95748.json